Jollyville, Texas
Current Conditions -  °F | °C
As of 3:51 PM on Monday 20 Oct 2014 (Local Time) from KATT Reporting Station
Scattered Clouds Scattered Clouds  
Wind Chill: 81°   Ceiling: Unl
Heat Index: 81°   Visibility: 10mi
Dew Point: 58°   Wind: 3mph
Humidity: 45%   Direction: 70°ENE
Pressure: 30.01"   Gusts: NA
Location:  30.44°N, 97.77°W
Report Text: KATT 202051Z AUTO 07003KT 10SM SCT050 27/14 A3001 RMK AO2 SLP153 T02720144 56022
Loading
Personal Weather Stations






























Interactive Weather Map
Tropical Storm Tracking
New forecast layout! Learn more

10-Day Weather Forecast

Advertisements
Track Severe Weather on mobile